GLOO2: Glover Creek, Glover, OK

                                SHEF ID:       GLOO2     Glover River near Glover, OK
STATION TYPE: Stream Gauge
Regulating: Stage = 16.00, Flow = 25615

PRECIP STAGE RIV-FLOW VOLTAGE BAT-LOAD
in ft cfs volt volt
Ccp-Rev Ccp-Rev Ccp-Rev Ccp-Rev Ccp-Rev
(America/Chicago)
04/29 00:00 ---- 5.52 1379 13.02 ----
04/29 01:00 ---- 5.59 1454 12.99 ----
04/29 02:00 ---- 5.56 1422 12.97 ----
04/29 03:00 ---- 5.47 1328 12.95 ----
04/29 04:00 ---- 5.37 1227 12.93 ----
04/29 05:00 ---- 5.32 1179 12.91 ----
04/29 06:00 ---- 5.29 1151 12.90 ----
04/29 07:00 ---- 5.23 1095 12.91 ----
04/29 08:00 ---- 5.22 1086 13.28 ----
04/29 09:00 ---- 5.19 1059 13.78 ----
04/29 10:00 ---- 5.18 1051 14.59 ----
04/29 11:00 ---- 5.13 1007 14.54 ----
04/29 12:00 ---- 5.08 964 14.51 ----
04/29 13:00 ---- 5.07 956 13.78 ----
04/29 14:00 ---- 5.03 923 13.76 ----
04/29 15:00 ---- 4.97 878 13.75 ----
04/29 16:00 ---- 4.91 838 13.74 ----
04/29 17:00 ---- 4.87 811 13.71 ----
04/29 18:00 ---- 4.82 774 13.82 ----
04/29 19:00 ---- 4.78 745 13.66 ----
04/29 20:00 ---- 4.74 717 13.21 ----
04/29 21:00 ---- 4.68 677 13.11 ----
04/29 22:00 ---- 4.66 663 13.08 ----
04/29 23:00 ---- 4.62 637 13.04 ----
Data processed at Thu 30Apr2026 04:39 GMT

NOTICE: If you are parsing this page

Please convert to using our Data API. Starting early 2026 we will be migrating to: https://water.usace.army.mil with modern pages rendered in JavaScript. When this migration completes you will no longer be able to scrape this page! CWMSDataAPI (CDA)

Timeseries IDs (TSIDs)

TSIDs used from left to right in the data table
GLOV.Precip-Inc.Total.1Hour.1Hour.Ccp-Rev
GLOV.Stage.Inst.1Hour.0.Ccp-Rev
GLOV.Flow.Inst.1Hour.0.Ccp-Rev
GLOV.Volt-Battery.Inst.1Hour.0.Ccp-Rev
GLOV.Volt-Battery Load.Inst.1Hour.0.Ccp-Rev

                            

All information presented herein is the property of the government of the United States of America and may be revised or deleted at any time without prior notice. Dissemination of this information without the expressed written consent of the Public Affairs Office, Tulsa District U.S. Army Corps of Engineers is strictly prohibited. These data are gathered electronically and, as presented, have NOT undergone any form of quality control. These data are NOT guaranteed to be valid or correct.